createdAt,value
2019-04-26T00:00:53.140Z,17.29
2019-04-26T00:03:28.015Z,17.20
2019-04-26T00:05:57.485Z,17.28
2019-04-26T00:08:26.271Z,17.32
2019-04-26T00:11:02.451Z,17.27
2019-04-26T00:13:48.129Z,17.22
2019-04-26T00:16:38.365Z,17.21
2019-04-26T00:19:07.462Z,17.27
2019-04-26T00:21:36.628Z,17.13
2019-04-26T00:24:05.793Z,17.20
2019-04-26T00:26:34.945Z,17.23
2019-04-26T00:29:03.943Z,17.18
2019-04-26T00:31:44.601Z,17.21
2019-04-26T00:34:22.830Z,17.23
2019-04-26T00:36:51.732Z,17.21
2019-04-26T00:39:20.773Z,17.14
2019-04-26T00:41:50.200Z,17.20
2019-04-26T00:44:19.444Z,17.14
2019-04-26T00:46:50.873Z,17.09
2019-04-26T00:49:21.259Z,17.05
2019-04-26T00:51:51.017Z,17.06
2019-04-26T00:54:22.239Z,16.88
2019-04-26T00:57:02.034Z,16.90
2019-04-26T00:59:32.198Z,16.88
2019-04-26T01:02:08.465Z,16.90
2019-04-26T01:04:37.346Z,16.99
2019-04-26T01:07:08.652Z,17.03
2019-04-26T01:09:37.621Z,16.97
2019-04-26T01:12:06.613Z,16.92
2019-04-26T01:14:35.577Z,16.77
2019-04-26T01:17:04.712Z,16.70
2019-04-26T01:20:00.090Z,16.81
2019-04-26T01:22:32.993Z,16.91
2019-04-26T01:25:06.107Z,16.79
2019-04-26T01:27:37.311Z,16.81
2019-04-26T01:30:09.058Z,16.56
2019-04-26T01:32:40.909Z,16.48
2019-04-26T01:35:09.967Z,16.50
2019-04-26T01:38:03.869Z,16.47
2019-04-26T01:40:34.476Z,16.40
2019-04-26T01:43:26.419Z,16.61
2019-04-26T01:46:10.581Z,16.49
2019-04-26T01:48:53.541Z,16.42
2019-04-26T01:51:29.035Z,16.51
2019-04-26T01:53:57.988Z,16.09
2019-04-26T01:56:31.428Z,16.10
2019-04-26T01:59:00.467Z,16.00
2019-04-26T02:01:43.339Z,15.95
2019-04-26T02:04:12.656Z,15.98
2019-04-26T02:06:41.796Z,16.19
2019-04-26T02:09:11.517Z,16.09
2019-04-26T02:11:40.821Z,15.60
2019-04-26T02:14:10.239Z,15.62
2019-04-26T02:16:39.780Z,15.53
2019-04-26T02:19:08.764Z,15.46
2019-04-26T02:21:44.149Z,15.33
2019-04-26T02:24:18.180Z,15.75
2019-04-26T02:26:48.195Z,15.86
2019-04-26T02:29:26.649Z,15.78
2019-04-26T02:31:59.795Z,15.20
2019-04-26T02:34:31.304Z,15.01
2019-04-26T02:37:03.592Z,15.03
2019-04-26T02:39:39.340Z,15.04
2019-04-26T02:42:19.082Z,15.21
2019-04-26T02:45:10.385Z,14.80
2019-04-26T02:47:57.742Z,14.62
2019-04-26T02:50:46.976Z,14.74
2019-04-26T02:53:33.560Z,14.69
2019-04-26T02:56:37.731Z,14.62
2019-04-26T02:59:34.570Z,14.37
2019-04-26T03:02:07.245Z,14.36
2019-04-26T03:04:40.882Z,14.40
2019-04-26T03:07:15.427Z,14.58
2019-04-26T03:09:47.503Z,14.17
2019-04-26T03:12:18.530Z,14.17
2019-04-26T03:15:13.907Z,14.27
2019-04-26T03:17:49.415Z,14.01
2019-04-26T03:20:21.973Z,13.86
2019-04-26T03:23:08.046Z,13.61
2019-04-26T03:26:12.902Z,14.08
2019-04-26T03:29:02.189Z,13.80
2019-04-26T03:32:02.342Z,14.02
2019-04-26T03:34:50.782Z,13.93
2019-04-26T03:38:11.283Z,13.87
2019-04-26T03:41:24.015Z,13.83
2019-04-26T03:44:12.147Z,13.74
2019-04-26T03:46:58.852Z,13.64
2019-04-26T03:50:09.773Z,13.78
2019-04-26T03:53:30.960Z,13.90
2019-04-26T03:56:36.486Z,13.84
2019-04-26T03:59:42.815Z,13.90
2019-04-26T04:02:21.914Z,13.90
2019-04-26T04:05:03.297Z,13.69
2019-04-26T04:07:39.131Z,13.72
2019-04-26T04:10:20.124Z,13.78
2019-04-26T04:14:07.073Z,13.81
2019-04-26T04:17:11.761Z,13.81
2019-04-26T04:20:51.721Z,13.84
2019-04-26T04:24:04.659Z,13.80
2019-04-26T04:27:10.460Z,13.80
2019-04-26T04:29:54.480Z,13.94
2019-04-26T04:32:30.149Z,14.02
2019-04-26T04:35:06.249Z,13.98
2019-04-26T04:38:09.667Z,13.94
2019-04-26T04:41:31.677Z,13.94
2019-04-26T04:45:12.945Z,13.89
2019-04-26T04:48:01.260Z,13.93
2019-04-26T04:50:42.552Z,14.08
2019-04-26T04:53:41.178Z,14.08
2019-04-26T04:56:35.426Z,14.44
2019-04-26T04:59:36.910Z,14.44
2019-04-26T05:02:20.811Z,14.41
2019-04-26T05:05:24.513Z,14.56
2019-04-26T05:34:02.482Z,14.56
2019-04-26T05:37:27.978Z,14.80
2019-04-26T05:40:13.506Z,14.73
2019-04-26T05:43:26.856Z,14.83
2019-04-26T05:46:34.459Z,14.74
2019-04-26T05:49:50.404Z,14.82
2019-04-26T05:53:08.276Z,14.81
2019-04-26T05:56:31.244Z,14.62
2019-04-26T05:59:17.687Z,14.43
2019-04-26T06:02:31.120Z,14.88
2019-04-26T06:05:31.301Z,15.10
2019-04-26T06:08:53.820Z,15.43
2019-04-26T06:11:32.776Z,15.61
2019-04-26T06:14:34.892Z,16.87
2019-04-26T06:17:36.732Z,16.97
2019-04-26T06:20:23.933Z,16.59
2019-04-26T06:23:22.728Z,16.72
2019-04-26T06:26:08.165Z,16.58
2019-04-26T06:28:57.100Z,16.26
2019-04-26T06:31:30.809Z,16.22
2019-04-26T06:34:11.586Z,16.11
2019-04-26T06:37:08.499Z,19.70
2019-04-26T06:40:06.018Z,23.50
2019-04-26T06:43:15.385Z,23.79
2019-04-26T06:46:47.530Z,25.07
2019-04-26T06:49:41.680Z,25.20
2019-04-26T06:52:15.102Z,25.77
2019-04-26T06:55:10.010Z,25.49
2019-04-26T06:58:14.490Z,23.50
2019-04-26T07:01:11.798Z,25.15
2019-04-26T07:04:21.295Z,24.51
2019-04-26T07:07:02.563Z,25.99
2019-04-26T07:09:38.779Z,23.36
2019-04-26T07:12:42.649Z,23.80
2019-04-26T07:16:16.471Z,25.29
2019-04-26T07:19:16.355Z,25.05
2019-04-26T07:22:35.133Z,24.36
2019-04-26T07:25:40.292Z,22.68
2019-04-26T07:28:30.896Z,23.19
2019-04-26T07:31:13.490Z,23.87
2019-04-26T07:34:09.480Z,22.23
2019-04-26T07:37:15.521Z,24.25
2019-04-26T07:40:43.093Z,24.08
2019-04-26T07:43:38.782Z,22.65
2019-04-26T07:46:48.010Z,22.86
2019-04-26T07:50:04.038Z,21.36
2019-04-26T07:52:52.950Z,20.85
2019-04-26T07:55:50.481Z,20.40
2019-04-26T07:59:10.642Z,20.42
2019-04-26T08:02:09.004Z,20.45
2019-04-26T08:04:43.498Z,19.24
2019-04-26T08:07:21.034Z,19.14
2019-04-26T08:10:10.322Z,19.80
2019-04-26T08:12:42.532Z,19.00
2019-04-26T08:15:39.091Z,19.75
2019-04-26T08:18:15.273Z,19.23
2019-04-26T08:20:50.611Z,19.78
2019-04-26T08:23:41.946Z,19.76
2019-04-26T08:26:13.802Z,20.39
2019-04-26T08:28:45.346Z,19.38
2019-04-26T08:31:21.503Z,20.08
2019-04-26T08:33:57.083Z,19.97
2019-04-26T08:36:31.683Z,20.31
2019-04-26T08:39:01.875Z,19.23
2019-04-26T08:41:31.512Z,19.58
2019-04-26T08:44:24.260Z,19.58
2019-04-26T08:47:20.980Z,19.17
2019-04-26T08:50:09.676Z,19.24
2019-04-26T08:52:39.719Z,19.41
2019-04-26T08:55:10.579Z,19.59
2019-04-26T08:57:43.495Z,19.18
2019-04-26T09:00:35.462Z,19.84
2019-04-26T09:03:22.886Z,19.04
2019-04-26T09:06:19.133Z,19.03
2019-04-26T09:08:51.536Z,18.87
2019-04-26T09:11:26.384Z,18.68
2019-04-26T09:13:56.270Z,19.17
2019-04-26T09:16:26.015Z,19.16
2019-04-26T09:18:59.523Z,19.17
2019-04-26T09:21:37.018Z,18.98
2019-04-26T09:24:25.115Z,19.15
2019-04-26T09:27:12.787Z,19.16
2019-04-26T09:30:05.084Z,19.65
2019-04-26T09:32:42.311Z,18.86
2019-04-26T09:35:15.239Z,18.35
2019-04-26T09:37:43.443Z,18.70
2019-04-26T09:40:21.155Z,18.56
2019-04-26T09:43:10.596Z,19.35
2019-04-26T09:46:03.069Z,18.93
2019-04-26T09:48:40.536Z,19.03
2019-04-26T09:51:10.894Z,19.13
2019-04-26T09:53:43.269Z,19.45
2019-04-26T09:56:11.839Z,18.16
2019-04-26T09:58:41.089Z,18.81
2019-04-26T10:01:10.576Z,18.87
2019-04-26T10:03:39.864Z,18.14
2019-04-26T10:06:09.439Z,17.94
2019-04-26T10:08:38.615Z,18.26
2019-04-26T10:11:10.963Z,18.69
2019-04-26T10:13:58.645Z,19.05
2019-04-26T10:16:33.626Z,19.19
2019-04-26T10:19:16.339Z,19.02
2019-04-26T10:21:45.660Z,18.00
2019-04-26T10:24:15.254Z,17.64
2019-04-26T10:26:44.527Z,18.13
2019-04-26T10:29:14.743Z,18.24
2019-04-26T10:31:47.558Z,18.21
2019-04-26T10:34:16.733Z,18.02
2019-04-26T10:36:45.937Z,18.22
2019-04-26T10:39:17.017Z,18.21
2019-04-26T10:41:46.262Z,18.42
2019-04-26T10:44:15.836Z,18.34
2019-04-26T10:46:55.065Z,19.02
2019-04-26T10:49:42.053Z,19.00
2019-04-26T10:52:18.830Z,18.53
2019-04-26T10:54:52.014Z,17.45
2019-04-26T10:57:29.941Z,18.04
2019-04-26T11:00:02.679Z,17.76
2019-04-26T11:02:32.493Z,17.57
2019-04-26T11:05:01.713Z,17.44
2019-04-26T11:07:30.945Z,17.52
2019-04-26T11:10:03.006Z,17.59
2019-04-26T11:12:34.047Z,17.67
2019-04-26T11:15:06.190Z,18.02
2019-04-26T11:17:35.249Z,17.89
2019-04-26T11:20:06.185Z,17.83
2019-04-26T11:22:37.579Z,17.59
2019-04-26T11:25:08.555Z,17.62
2019-04-26T11:27:40.221Z,17.57
2019-04-26T11:30:12.079Z,17.88
2019-04-26T11:32:41.098Z,18.14
2019-04-26T11:35:11.805Z,18.77
2019-04-26T11:37:41.657Z,18.81
2019-04-26T11:40:14.534Z,19.22
2019-04-26T11:42:45.629Z,19.03
2019-04-26T11:45:15.892Z,18.43
2019-04-26T11:47:55.788Z,18.44
2019-04-26T11:50:17.844Z,17.81
2019-04-26T11:52:48.056Z,18.00
2019-04-26T11:55:17.429Z,18.11
2019-04-26T11:57:47.504Z,18.25
2019-04-26T12:00:32.365Z,18.10
2019-04-26T12:03:02.987Z,18.19
2019-04-26T12:05:39.568Z,19.13
2019-04-26T12:08:14.922Z,19.41
2019-04-26T12:10:45.860Z,18.63
2019-04-26T12:13:15.570Z,18.40
2019-04-26T12:15:45.430Z,18.30
2019-04-26T12:18:15.026Z,18.00
2019-04-26T12:20:44.430Z,17.88
2019-04-26T12:23:20.557Z,18.26
2019-04-26T12:25:49.310Z,18.46
2019-04-26T12:28:19.836Z,18.82
2019-04-26T12:30:49.439Z,18.82
2019-04-26T12:33:18.689Z,18.50
2019-04-26T12:35:48.248Z,18.56
2019-04-26T12:38:17.827Z,18.31
2019-04-26T12:40:47.885Z,18.38
2019-04-26T12:43:20.035Z,18.59
2019-04-26T12:46:16.200Z,18.47
2019-04-26T12:48:46.046Z,18.25
2019-04-26T12:51:16.624Z,18.15
2019-04-26T12:53:45.751Z,18.18
2019-04-26T12:56:15.548Z,18.25
2019-04-26T12:58:45.629Z,18.19
2019-04-26T13:02:05.084Z,17.75
2019-04-26T13:05:20.635Z,17.71
2019-04-26T13:07:52.508Z,17.28
2019-04-26T13:17:35.798Z,16.79
2019-04-26T13:29:23.000Z,16.76
2019-04-26T13:33:04.080Z,17.07
2019-04-26T13:35:33.280Z,17.03
2019-04-26T13:38:05.154Z,16.97
2019-04-26T13:44:05.903Z,16.77
2019-04-26T13:46:49.443Z,16.76
2019-04-26T13:49:26.577Z,16.71
2019-04-26T13:51:55.514Z,16.53
2019-04-26T13:54:24.366Z,16.84
2019-04-26T13:56:53.331Z,16.74
2019-04-26T13:59:22.313Z,16.50
2019-04-26T14:01:51.246Z,16.49
2019-04-26T14:04:20.209Z,16.46
2019-04-26T14:06:49.098Z,16.53
2019-04-26T14:09:18.015Z,16.35
2019-04-26T14:11:58.120Z,15.96
2019-04-26T14:14:35.314Z,16.12
2019-04-26T14:17:04.303Z,16.01
2019-04-26T14:19:33.163Z,15.85
2019-04-26T14:22:03.235Z,16.11
2019-04-26T14:24:44.180Z,15.94
2019-04-26T14:27:19.707Z,16.19
2019-04-26T14:29:50.081Z,16.16
2019-04-26T14:32:25.217Z,16.29
2019-04-26T14:34:54.221Z,16.61
2019-04-26T14:37:23.217Z,16.81
2019-04-26T14:39:55.366Z,17.24
2019-04-26T14:42:33.596Z,17.15
2019-04-26T14:44:54.080Z,17.00
2019-04-26T14:47:26.417Z,17.17
2019-04-26T14:49:57.596Z,17.42
2019-04-26T14:52:27.486Z,16.90
2019-04-26T14:54:54.614Z,17.13
2019-04-26T14:57:31.022Z,17.22
2019-04-26T14:59:58.144Z,17.11
2019-04-26T15:02:47.155Z,17.15
2019-04-26T15:05:22.317Z,16.93
2019-04-26T15:07:53.604Z,16.95
2019-04-26T15:10:23.524Z,16.34
2019-04-26T15:12:58.595Z,16.91
2019-04-26T15:15:30.975Z,17.16
2019-04-26T15:17:59.492Z,19.17
2019-04-26T15:20:27.846Z,19.68
2019-04-26T15:22:56.751Z,18.28
2019-04-26T15:25:28.675Z,17.24
2019-04-26T15:30:43.376Z,16.40
2019-04-26T15:34:08.782Z,19.02
2019-04-26T15:40:02.718Z,20.15
2019-04-26T15:43:39.863Z,18.74
2019-04-26T15:46:17.651Z,18.14
2019-04-26T15:49:42.837Z,16.30
2019-04-26T15:52:12.129Z,15.99
2019-04-26T15:54:42.491Z,16.05
2019-04-26T15:57:12.577Z,15.97
2019-04-26T15:59:43.042Z,15.50
2019-04-26T16:02:13.456Z,15.36
2019-04-26T16:05:40.567Z,15.50
2019-04-26T16:08:13.346Z,15.52
2019-04-26T16:10:43.150Z,15.16
2019-04-26T16:13:20.693Z,14.94
2019-04-26T16:15:48.754Z,15.18
2019-04-26T16:18:17.443Z,15.08
2019-04-26T16:21:05.741Z,15.04
2019-04-26T16:23:41.424Z,14.91
2019-04-26T16:26:12.763Z,14.85
2019-04-26T16:29:05.312Z,14.91
2019-04-26T16:31:46.086Z,14.85
2019-04-26T16:34:28.103Z,14.88
2019-04-26T16:36:58.719Z,14.64
2019-04-26T16:39:32.319Z,14.64
2019-04-26T16:42:04.388Z,14.84
2019-04-26T16:44:32.991Z,14.63
2019-04-26T16:47:05.655Z,14.73
2019-04-26T16:49:41.816Z,14.74
2019-04-26T16:52:07.890Z,14.80
2019-04-26T16:54:37.411Z,14.50
2019-04-26T16:57:11.466Z,14.72
2019-04-26T16:59:47.455Z,14.15
2019-04-26T17:04:39.791Z,14.07
2019-04-26T17:07:09.157Z,14.42
2019-04-26T17:09:55.793Z,14.47
2019-04-26T17:12:10.645Z,14.35
2019-04-26T17:14:47.865Z,14.46
2019-04-26T17:17:14.025Z,14.15
2019-04-26T17:19:43.516Z,14.25
2019-04-26T17:22:42.225Z,14.22
2019-04-26T17:25:26.860Z,14.12
2019-04-26T17:27:55.891Z,14.04
2019-04-26T17:30:26.229Z,13.94
2019-04-26T17:32:55.468Z,13.94
2019-04-26T17:35:25.406Z,14.05
2019-04-26T17:38:02.045Z,13.84
2019-04-26T17:40:30.160Z,13.91
2019-04-26T17:43:00.508Z,14.00
2019-04-26T17:45:30.622Z,13.77
2019-04-26T17:48:01.338Z,13.80
2019-04-26T17:50:30.956Z,13.76
2019-04-26T17:53:00.657Z,13.76
2019-04-26T17:55:33.348Z,13.74
2019-04-26T17:58:12.118Z,13.82
2019-04-26T18:00:46.007Z,13.54
2019-04-26T18:03:11.642Z,13.54
2019-04-26T18:05:55.948Z,13.46
2019-04-26T18:08:31.296Z,13.56
2019-04-26T18:10:43.191Z,13.52
2019-04-26T18:13:16.143Z,13.39
2019-04-26T18:15:48.485Z,13.48
2019-04-26T18:18:34.258Z,13.36
2019-04-26T18:21:40.927Z,13.31
2019-04-26T18:24:13.200Z,13.34
2019-04-26T18:26:43.300Z,13.27
2019-04-26T18:29:13.190Z,13.36
2019-04-26T18:31:43.822Z,13.36
2019-04-26T18:34:13.109Z,13.17
2019-04-26T18:36:42.996Z,13.16
2019-04-26T18:39:12.751Z,12.88
2019-04-26T18:41:41.914Z,13.21
2019-04-26T18:44:11.038Z,13.10
2019-04-26T18:46:49.279Z,13.10
2019-04-26T18:49:22.595Z,13.25
2019-04-26T18:51:50.167Z,12.87
2019-04-26T18:54:24.936Z,12.87
2019-04-26T18:57:15.544Z,12.96
2019-04-26T18:59:44.817Z,13.08
2019-04-26T19:02:19.880Z,13.13
2019-04-26T19:04:49.689Z,13.08
2019-04-26T19:07:31.304Z,12.67
2019-04-26T19:10:00.683Z,12.85
2019-04-26T19:12:23.240Z,12.54
2019-04-26T19:15:19.700Z,12.89
2019-04-26T19:18:07.775Z,12.90
2019-04-26T19:20:42.098Z,12.99
2019-04-26T19:23:12.280Z,12.93
2019-04-26T19:25:41.737Z,13.01
2019-04-26T19:28:12.177Z,13.01
2019-04-26T19:30:48.921Z,12.76
2019-04-26T19:33:17.045Z,12.99
2019-04-26T19:35:47.409Z,12.90
2019-04-26T19:38:15.088Z,12.80
2019-04-26T19:40:47.868Z,12.70
2019-04-26T19:47:07.236Z,13.02
2019-04-26T19:49:54.235Z,12.98
2019-04-26T19:52:33.642Z,12.78
2019-04-26T19:55:23.838Z,12.71
2019-04-26T19:57:59.697Z,12.59
2019-04-26T20:00:29.282Z,12.68
2019-04-26T20:02:58.492Z,12.67
2019-04-26T20:05:28.020Z,12.71
2019-04-26T20:07:58.456Z,12.84
2019-04-26T20:10:28.163Z,12.68
2019-04-26T20:12:57.447Z,12.73
2019-04-26T20:15:28.632Z,12.44
2019-04-26T20:18:00.296Z,12.48
2019-04-26T20:20:34.522Z,12.63
2019-04-26T20:23:05.802Z,12.72
2019-04-26T20:25:32.076Z,12.66
2019-04-26T20:28:03.087Z,12.41
2019-04-26T20:31:05.869Z,12.51
2019-04-26T20:33:34.932Z,12.50
2019-04-26T20:36:04.806Z,12.62
2019-04-26T20:38:42.706Z,12.39
2019-04-26T20:41:05.411Z,12.48
2019-04-26T20:43:36.764Z,12.66
2019-04-26T20:46:14.569Z,12.51
2019-04-26T20:48:46.604Z,12.53
2019-04-26T20:51:18.174Z,12.51
2019-04-26T20:53:47.086Z,12.54
2019-04-26T20:56:18.705Z,12.59
2019-04-26T20:58:48.156Z,12.60
2019-04-26T21:01:17.619Z,12.52
2019-04-26T21:03:47.463Z,12.60
2019-04-26T21:06:18.655Z,12.30
2019-04-26T21:08:47.893Z,12.39
2019-04-26T21:11:17.657Z,12.43
2019-04-26T21:13:47.407Z,12.52
2019-04-26T21:16:16.711Z,12.27
2019-04-26T21:18:45.976Z,12.24
2019-04-26T21:21:16.626Z,12.35
2019-04-26T21:33:21.440Z,12.42
2019-04-26T21:36:22.947Z,12.53
2019-04-26T21:39:13.882Z,12.44
2019-04-26T21:41:53.765Z,12.41
2019-04-26T21:44:22.736Z,12.20
2019-04-26T21:46:56.196Z,12.18
2019-04-26T21:49:24.317Z,12.27
2019-04-26T21:51:54.310Z,12.32
2019-04-26T21:54:25.152Z,12.26
2019-04-26T21:57:13.534Z,12.24
2019-04-26T21:59:44.170Z,12.28
2019-04-26T22:02:34.922Z,12.32
2019-04-26T22:05:03.567Z,12.33
2019-04-26T22:07:32.846Z,12.35
2019-04-26T22:10:23.805Z,12.47
2019-04-26T22:12:53.951Z,12.30
2019-04-26T22:15:40.090Z,12.23
2019-04-26T22:18:18.040Z,12.15
2019-04-26T22:20:52.261Z,12.27
2019-04-26T22:23:51.693Z,12.21
2019-04-26T22:26:20.642Z,12.07
2019-04-26T22:28:49.644Z,12.14
2019-04-26T22:31:18.561Z,12.06
2019-04-26T22:33:47.568Z,12.08
2019-04-26T22:36:16.609Z,12.13
2019-04-26T22:38:45.677Z,12.08
2019-04-26T22:41:28.420Z,12.08
2019-04-26T22:44:03.869Z,12.08
2019-04-26T22:46:49.524Z,11.99
2019-04-26T22:49:18.377Z,12.03
2019-04-26T22:51:47.401Z,12.19
2019-04-26T22:54:16.406Z,12.33
2019-04-26T22:56:46.005Z,12.22
2019-04-26T23:02:58.112Z,12.14
2019-04-26T23:05:30.746Z,12.07
2019-04-26T23:07:59.334Z,12.16
2019-04-26T23:10:34.584Z,12.08
2019-04-26T23:13:11.004Z,11.95
2019-04-26T23:16:11.355Z,12.11
2019-04-26T23:18:50.865Z,12.11
2019-04-26T23:21:26.802Z,11.96
2019-04-26T23:23:56.133Z,11.95
2019-04-26T23:26:25.711Z,12.02
2019-04-26T23:28:55.887Z,12.17
2019-04-26T23:31:25.244Z,12.07
2019-04-26T23:33:54.959Z,11.98
2019-04-26T23:36:24.507Z,11.94
2019-04-26T23:38:54.168Z,11.88
2019-04-26T23:41:23.773Z,11.98
2019-04-26T23:43:56.830Z,11.93
2019-04-26T23:46:25.888Z,12.07
2019-04-26T23:48:55.361Z,12.14
2019-04-26T23:51:26.255Z,12.20
2019-04-26T23:53:57.773Z,12.20
2019-04-26T23:56:27.145Z,12.13
2019-04-26T23:58:56.712Z,12.14
